sensor_id;sensor_type;location;lat;lon;timestamp;P1;durP1;ratioP1;P2;durP2;ratioP2
43803;SDS011;29430;52.924;-2.388;2023-03-01T00:03:02;3.40;;;1.10;;
43803;SDS011;29430;52.924;-2.388;2023-03-01T00:07:54;2.30;;;0.60;;
43803;SDS011;29430;52.924;-2.388;2023-03-01T00:12:46;2.78;;;0.57;;
43803;SDS011;29430;52.924;-2.388;2023-03-01T00:17:38;2.78;;;0.60;;
43803;SDS011;29430;52.924;-2.388;2023-03-01T00:22:30;3.35;;;0.60;;
43803;SDS011;29430;52.924;-2.388;2023-03-01T00:27:21;1.50;;;0.40;;
43803;SDS011;29430;52.924;-2.388;2023-03-01T00:32:15;3.22;;;0.50;;
43803;SDS011;29430;52.924;-2.388;2023-03-01T00:37:07;1.33;;;0.43;;
43803;SDS011;29430;52.924;-2.388;2023-03-01T00:41:59;2.78;;;0.40;;
43803;SDS011;29430;52.924;-2.388;2023-03-01T00:46:53;1.50;;;0.30;;
43803;SDS011;29430;52.924;-2.388;2023-03-01T00:51:45;1.70;;;0.30;;
43803;SDS011;29430;52.924;-2.388;2023-03-01T00:56:37;2.30;;;0.35;;
43803;SDS011;29430;52.924;-2.388;2023-03-01T01:01:30;0.95;;;0.30;;
43803;SDS011;29430;52.924;-2.388;2023-03-01T01:06:24;1.35;;;0.55;;
43803;SDS011;29430;52.924;-2.388;2023-03-01T01:11:18;1.25;;;0.40;;
43803;SDS011;29430;52.924;-2.388;2023-03-01T01:16:12;1.15;;;0.32;;
43803;SDS011;29430;52.924;-2.388;2023-03-01T01:21:06;2.08;;;0.50;;
43803;SDS011;29430;52.924;-2.388;2023-03-01T01:26:19;2.50;;;0.82;;
43803;SDS011;29430;52.924;-2.388;2023-03-01T01:31:13;2.63;;;0.73;;
43803;SDS011;29430;52.924;-2.388;2023-03-01T01:36:06;2.55;;;0.65;;
43803;SDS011;29430;52.924;-2.388;2023-03-01T01:40:59;3.90;;;0.90;;
43803;SDS011;29430;52.924;-2.388;2023-03-01T01:45:51;2.88;;;0.70;;
43803;SDS011;29430;52.924;-2.388;2023-03-01T01:50:53;1.70;;;0.60;;
43803;SDS011;29430;52.924;-2.388;2023-03-01T01:55:51;3.05;;;0.90;;
43803;SDS011;29430;52.924;-2.388;2023-03-01T02:00:51;1.88;;;0.60;;
43803;SDS011;29430;52.924;-2.388;2023-03-01T02:10:46;2.22;;;0.60;;
43803;SDS011;29430;52.924;-2.388;2023-03-01T02:15:41;1.92;;;0.50;;
43803;SDS011;29430;52.924;-2.388;2023-03-01T02:20:48;2.08;;;0.40;;
43803;SDS011;29430;52.924;-2.388;2023-03-01T02:25:52;1.55;;;0.40;;
43803;SDS011;29430;52.924;-2.388;2023-03-01T02:30:49;1.95;;;0.43;;
43803;SDS011;29430;52.924;-2.388;2023-03-01T02:36:00;2.55;;;0.40;;
43803;SDS011;29430;52.924;-2.388;2023-03-01T02:40:56;3.17;;;0.40;;
43803;SDS011;29430;52.924;-2.388;2023-03-01T02:45:50;2.17;;;0.40;;
43803;SDS011;29430;52.924;-2.388;2023-03-01T02:51:00;1.25;;;0.35;;
43803;SDS011;29430;52.924;-2.388;2023-03-01T02:55:59;0.90;;;0.30;;
43803;SDS011;29430;52.924;-2.388;2023-03-01T03:00:52;3.45;;;0.40;;
43803;SDS011;29430;52.924;-2.388;2023-03-01T03:05:45;2.10;;;0.50;;
43803;SDS011;29430;52.924;-2.388;2023-03-01T03:10:38;1.88;;;0.50;;
43803;SDS011;29430;52.924;-2.388;2023-03-01T03:15:32;1.70;;;0.60;;
43803;SDS011;29430;52.924;-2.388;2023-03-01T03:20:27;4.32;;;0.70;;
43803;SDS011;29430;52.924;-2.388;2023-03-01T03:25:20;3.72;;;1.10;;
43803;SDS011;29430;52.924;-2.388;2023-03-01T03:30:14;3.92;;;1.10;;
43803;SDS011;29430;52.924;-2.388;2023-03-01T03:35:08;4.43;;;1.25;;
43803;SDS011;29430;52.924;-2.388;2023-03-01T03:40:01;4.05;;;1.23;;
43803;SDS011;29430;52.924;-2.388;2023-03-01T03:44:53;3.17;;;0.77;;
43803;SDS011;29430;52.924;-2.388;2023-03-01T03:49:44;2.55;;;0.60;;
43803;SDS011;29430;52.924;-2.388;2023-03-01T03:54:36;4.82;;;0.90;;
43803;SDS011;29430;52.924;-2.388;2023-03-01T03:59:28;2.55;;;1.00;;
43803;SDS011;29430;52.924;-2.388;2023-03-01T04:04:19;4.00;;;0.75;;
43803;SDS011;29430;52.924;-2.388;2023-03-01T04:09:11;2.05;;;0.70;;
43803;SDS011;29430;52.924;-2.388;2023-03-01T04:14:03;3.17;;;0.80;;
43803;SDS011;29430;52.924;-2.388;2023-03-01T04:18:55;3.38;;;0.90;;
43803;SDS011;29430;52.924;-2.388;2023-03-01T04:23:47;5.03;;;0.90;;
43803;SDS011;29430;52.924;-2.388;2023-03-01T04:28:40;4.75;;;0.90;;
43803;SDS011;29430;52.924;-2.388;2023-03-01T04:33:34;4.38;;;0.63;;
43803;SDS011;29430;52.924;-2.388;2023-03-01T04:38:25;1.60;;;0.40;;
43803;SDS011;29430;52.924;-2.388;2023-03-01T04:43:17;1.05;;;0.30;;
43803;SDS011;29430;52.924;-2.388;2023-03-01T04:48:09;3.25;;;0.30;;
43803;SDS011;29430;52.924;-2.388;2023-03-01T04:53:01;1.92;;;0.30;;
43803;SDS011;29430;52.924;-2.388;2023-03-01T04:57:53;2.03;;;0.35;;
43803;SDS011;29430;52.924;-2.388;2023-03-01T05:02:46;1.48;;;0.40;;
43803;SDS011;29430;52.924;-2.388;2023-03-01T05:07:39;1.60;;;0.40;;
43803;SDS011;29430;52.924;-2.388;2023-03-01T05:12:31;2.28;;;0.52;;
43803;SDS011;29430;52.924;-2.388;2023-03-01T05:17:23;1.88;;;0.50;;
43803;SDS011;29430;52.924;-2.388;2023-03-01T05:22:15;2.70;;;0.40;;
43803;SDS011;29430;52.924;-2.388;2023-03-01T05:27:07;1.60;;;0.38;;
43803;SDS011;29430;52.924;-2.388;2023-03-01T05:31:59;3.13;;;1.10;;
43803;SDS011;29430;52.924;-2.388;2023-03-01T05:36:52;1.67;;;0.50;;
43803;SDS011;29430;52.924;-2.388;2023-03-01T05:41:44;2.55;;;0.65;;
43803;SDS011;29430;52.924;-2.388;2023-03-01T05:46:36;2.35;;;0.60;;
43803;SDS011;29430;52.924;-2.388;2023-03-01T05:51:28;1.15;;;0.32;;
43803;SDS011;29430;52.924;-2.388;2023-03-01T05:56:20;1.83;;;0.30;;
43803;SDS011;29430;52.924;-2.388;2023-03-01T06:01:13;2.40;;;0.40;;
43803;SDS011;29430;52.924;-2.388;2023-03-01T06:06:05;1.88;;;0.30;;
43803;SDS011;29430;52.924;-2.388;2023-03-01T06:10:56;2.70;;;0.30;;
43803;SDS011;29430;52.924;-2.388;2023-03-01T06:15:48;0.90;;;0.20;;
43803;SDS011;29430;52.924;-2.388;2023-03-01T06:20:40;1.33;;;0.20;;
43803;SDS011;29430;52.924;-2.388;2023-03-01T06:25:32;1.40;;;0.20;;
43803;SDS011;29430;52.924;-2.388;2023-03-01T06:30:24;1.55;;;0.30;;
43803;SDS011;29430;52.924;-2.388;2023-03-01T06:35:17;0.60;;;0.20;;
43803;SDS011;29430;52.924;-2.388;2023-03-01T06:40:10;1.52;;;0.28;;
43803;SDS011;29430;52.924;-2.388;2023-03-01T06:45:05;1.17;;;0.32;;
43803;SDS011;29430;52.924;-2.388;2023-03-01T06:49:58;1.40;;;0.40;;
43803;SDS011;29430;52.924;-2.388;2023-03-01T06:54:50;3.00;;;0.40;;
43803;SDS011;29430;52.924;-2.388;2023-03-01T06:59:42;1.27;;;0.30;;
43803;SDS011;29430;52.924;-2.388;2023-03-01T07:04:33;3.08;;;0.40;;
43803;SDS011;29430;52.924;-2.388;2023-03-01T07:09:25;3.15;;;0.40;;
43803;SDS011;29430;52.924;-2.388;2023-03-01T07:14:17;1.83;;;0.47;;
43803;SDS011;29430;52.924;-2.388;2023-03-01T07:19:11;2.40;;;0.70;;
43803;SDS011;29430;52.924;-2.388;2023-03-01T07:24:02;3.10;;;0.70;;
43803;SDS011;29430;52.924;-2.388;2023-03-01T07:28:54;2.47;;;0.52;;
43803;SDS011;29430;52.924;-2.388;2023-03-01T07:33:46;1.60;;;0.40;;
43803;SDS011;29430;52.924;-2.388;2023-03-01T07:38:38;1.63;;;0.40;;
43803;SDS011;29430;52.924;-2.388;2023-03-01T07:43:30;1.88;;;0.50;;
43803;SDS011;29430;52.924;-2.388;2023-03-01T07:48:22;0.93;;;0.30;;
43803;SDS011;29430;52.924;-2.388;2023-03-01T07:53:13;2.00;;;0.30;;
43803;SDS011;29430;52.924;-2.388;2023-03-01T07:58:05;1.95;;;0.60;;
43803;SDS011;29430;52.924;-2.388;2023-03-01T08:03:00;0.90;;;0.30;;
43803;SDS011;29430;52.924;-2.388;2023-03-01T08:07:53;2.45;;;0.35;;
43803;SDS011;29430;52.924;-2.388;2023-03-01T08:12:45;1.27;;;0.40;;
43803;SDS011;29430;52.924;-2.388;2023-03-01T08:17:37;1.20;;;0.40;;
43803;SDS011;29430;52.924;-2.388;2023-03-01T08:22:28;1.33;;;0.40;;
43803;SDS011;29430;52.924;-2.388;2023-03-01T08:27:20;1.52;;;0.40;;
43803;SDS011;29430;52.924;-2.388;2023-03-01T08:32:12;1.50;;;0.50;;
43803;SDS011;29430;52.924;-2.388;2023-03-01T08:37:04;2.45;;;0.40;;
43803;SDS011;29430;52.924;-2.388;2023-03-01T08:41:56;1.70;;;0.40;;
43803;SDS011;29430;52.924;-2.388;2023-03-01T08:46:50;3.00;;;0.40;;
43803;SDS011;29430;52.924;-2.388;2023-03-01T08:51:44;1.90;;;0.40;;
43803;SDS011;29430;52.924;-2.388;2023-03-01T08:56:37;4.00;;;0.40;;
43803;SDS011;29430;52.924;-2.388;2023-03-01T09:01:29;1.98;;;0.30;;
43803;SDS011;29430;52.924;-2.388;2023-03-01T09:06:21;1.33;;;0.38;;
43803;SDS011;29430;52.924;-2.388;2023-03-01T09:11:14;2.05;;;0.50;;
43803;SDS011;29430;52.924;-2.388;2023-03-01T09:16:08;2.25;;;0.40;;
43803;SDS011;29430;52.924;-2.388;2023-03-01T09:21:09;1.55;;;0.20;;
43803;SDS011;29430;52.924;-2.388;2023-03-01T09:26:06;2.80;;;0.30;;
43803;SDS011;29430;52.924;-2.388;2023-03-01T09:31:00;1.17;;;0.30;;
43803;SDS011;29430;52.924;-2.388;2023-03-01T09:35:56;2.85;;;0.40;;
43803;SDS011;29430;52.924;-2.388;2023-03-01T09:40:48;1.67;;;0.40;;
43803;SDS011;29430;52.924;-2.388;2023-03-01T09:45:41;2.03;;;0.40;;
43803;SDS011;29430;52.924;-2.388;2023-03-01T09:50:38;3.25;;;0.30;;
43803;SDS011;29430;52.924;-2.388;2023-03-01T09:55:34;2.28;;;0.30;;
43803;SDS011;29430;52.924;-2.388;2023-03-01T10:00:43;0.90;;;0.30;;
43803;SDS011;29430;52.924;-2.388;2023-03-01T10:10:49;2.00;;;0.40;;
43803;SDS011;29430;52.924;-2.388;2023-03-01T10:15:47;1.17;;;0.35;;
43803;SDS011;29430;52.924;-2.388;2023-03-01T10:31:04;2.08;;;0.30;;
43803;SDS011;29430;52.924;-2.388;2023-03-01T10:35:58;1.85;;;0.40;;
43803;SDS011;29430;52.924;-2.388;2023-03-01T10:45:42;2.97;;;0.52;;
43803;SDS011;29430;52.924;-2.388;2023-03-01T10:50:34;3.58;;;0.82;;
43803;SDS011;29430;52.924;-2.388;2023-03-01T10:55:30;2.70;;;0.47;;
43803;SDS011;29430;52.924;-2.388;2023-03-01T11:00:25;2.40;;;0.40;;
43803;SDS011;29430;52.924;-2.388;2023-03-01T11:05:22;3.30;;;0.40;;
43803;SDS011;29430;52.924;-2.388;2023-03-01T11:15:27;2.78;;;0.35;;
43803;SDS011;29430;52.924;-2.388;2023-03-01T11:25:26;1.40;;;0.28;;
43803;SDS011;29430;52.924;-2.388;2023-03-01T11:30:32;3.05;;;0.68;;
43803;SDS011;29430;52.924;-2.388;2023-03-01T11:36:00;1.42;;;0.30;;
43803;SDS011;29430;52.924;-2.388;2023-03-01T11:41:00;2.42;;;0.60;;
43803;SDS011;29430;52.924;-2.388;2023-03-01T11:51:02;2.25;;;0.25;;
43803;SDS011;29430;52.924;-2.388;2023-03-01T12:26:35;2.67;;;0.20;;
43803;SDS011;29430;52.924;-2.388;2023-03-01T12:52:36;1.20;;;0.05;;
43803;SDS011;29430;52.924;-2.388;2023-03-01T12:57:40;2.80;;;0.20;;
43803;SDS011;29430;52.924;-2.388;2023-03-01T13:02:59;1.20;;;0.10;;
43803;SDS011;29430;52.924;-2.388;2023-03-01T13:13:28;2.67;;;0.20;;
43803;SDS011;29430;52.924;-2.388;2023-03-01T13:38:38;2.72;;;0.40;;
43803;SDS011;29430;52.924;-2.388;2023-03-01T13:43:33;1.08;;;0.20;;
43803;SDS011;29430;52.924;-2.388;2023-03-01T13:48:28;1.33;;;0.10;;
43803;SDS011;29430;52.924;-2.388;2023-03-01T13:53:22;1.88;;;0.20;;
43803;SDS011;29430;52.924;-2.388;2023-03-01T13:58:28;4.45;;;0.20;;
43803;SDS011;29430;52.924;-2.388;2023-03-01T14:03:21;3.33;;;0.13;;
43803;SDS011;29430;52.924;-2.388;2023-03-01T14:08:23;2.75;;;0.20;;
43803;SDS011;29430;52.924;-2.388;2023-03-01T14:13:23;1.58;;;0.10;;
43803;SDS011;29430;52.924;-2.388;2023-03-01T14:18:36;2.33;;;0.10;;
43803;SDS011;29430;52.924;-2.388;2023-03-01T14:23:37;0.85;;;0.10;;
43803;SDS011;29430;52.924;-2.388;2023-03-01T14:28:31;2.25;;;0.40;;
43803;SDS011;29430;52.924;-2.388;2023-03-01T14:33:29;3.85;;;0.43;;
43803;SDS011;29430;52.924;-2.388;2023-03-01T14:38:29;1.70;;;0.10;;
43803;SDS011;29430;52.924;-2.388;2023-03-01T14:43:27;1.10;;;0.10;;
43803;SDS011;29430;52.924;-2.388;2023-03-01T14:48:20;1.80;;;0.35;;
43803;SDS011;29430;52.924;-2.388;2023-03-01T14:53:15;3.03;;;0.50;;
43803;SDS011;29430;52.924;-2.388;2023-03-01T14:58:21;2.17;;;0.20;;
43803;SDS011;29430;52.924;-2.388;2023-03-01T15:03:19;0.85;;;0.10;;
43803;SDS011;29430;52.924;-2.388;2023-03-01T15:08:18;0.63;;;0.10;;
43803;SDS011;29430;52.924;-2.388;2023-03-01T15:13:13;3.78;;;0.20;;
43803;SDS011;29430;52.924;-2.388;2023-03-01T15:28:18;0.75;;;0.20;;
43803;SDS011;29430;52.924;-2.388;2023-03-01T15:38:31;2.45;;;0.20;;
43803;SDS011;29430;52.924;-2.388;2023-03-01T15:43:40;2.08;;;0.10;;
43803;SDS011;29430;52.924;-2.388;2023-03-01T15:48:32;1.48;;;0.10;;
43803;SDS011;29430;52.924;-2.388;2023-03-01T15:53:24;0.77;;;0.10;;
43803;SDS011;29430;52.924;-2.388;2023-03-01T15:58:27;1.00;;;0.10;;
43803;SDS011;29430;52.924;-2.388;2023-03-01T16:03:19;1.05;;;0.00;;
43803;SDS011;29430;52.924;-2.388;2023-03-01T16:08:12;1.27;;;0.10;;
43803;SDS011;29430;52.924;-2.388;2023-03-01T16:13:05;2.53;;;0.20;;
43803;SDS011;29430;52.924;-2.388;2023-03-01T16:17:56;4.60;;;0.20;;
43803;SDS011;29430;52.924;-2.388;2023-03-01T16:22:51;1.27;;;0.20;;
43803;SDS011;29430;52.924;-2.388;2023-03-01T16:27:45;2.75;;;0.10;;
43803;SDS011;29430;52.924;-2.388;2023-03-01T16:32:40;1.85;;;0.10;;
43803;SDS011;29430;52.924;-2.388;2023-03-01T16:37:33;1.73;;;0.20;;
43803;SDS011;29430;52.924;-2.388;2023-03-01T16:42:26;0.90;;;0.20;;
43803;SDS011;29430;52.924;-2.388;2023-03-01T16:47:18;1.67;;;0.25;;
43803;SDS011;29430;52.924;-2.388;2023-03-01T16:52:10;2.05;;;0.57;;
43803;SDS011;29430;52.924;-2.388;2023-03-01T16:57:02;2.38;;;0.20;;
43803;SDS011;29430;52.924;-2.388;2023-03-01T17:01:54;0.82;;;0.20;;
43803;SDS011;29430;52.924;-2.388;2023-03-01T17:06:46;1.00;;;0.30;;
43803;SDS011;29430;52.924;-2.388;2023-03-01T17:11:39;1.52;;;0.20;;
43803;SDS011;29430;52.924;-2.388;2023-03-01T17:16:31;1.13;;;0.30;;
43803;SDS011;29430;52.924;-2.388;2023-03-01T17:21:23;0.85;;;0.20;;
43803;SDS011;29430;52.924;-2.388;2023-03-01T17:26:15;1.05;;;0.30;;
43803;SDS011;29430;52.924;-2.388;2023-03-01T17:31:07;1.85;;;0.30;;
43803;SDS011;29430;52.924;-2.388;2023-03-01T17:35:59;3.03;;;0.20;;
43803;SDS011;29430;52.924;-2.388;2023-03-01T17:40:51;0.77;;;0.20;;
43803;SDS011;29430;52.924;-2.388;2023-03-01T17:45:43;1.58;;;0.20;;
43803;SDS011;29430;52.924;-2.388;2023-03-01T17:50:38;1.42;;;0.20;;
43803;SDS011;29430;52.924;-2.388;2023-03-01T17:55:30;0.98;;;0.20;;
43803;SDS011;29430;52.924;-2.388;2023-03-01T18:00:22;1.27;;;0.20;;
43803;SDS011;29430;52.924;-2.388;2023-03-01T18:05:14;3.25;;;0.20;;
43803;SDS011;29430;52.924;-2.388;2023-03-01T18:10:06;1.35;;;0.20;;
43803;SDS011;29430;52.924;-2.388;2023-03-01T18:14:58;0.75;;;0.20;;
43803;SDS011;29430;52.924;-2.388;2023-03-01T18:19:50;1.60;;;0.20;;
43803;SDS011;29430;52.924;-2.388;2023-03-01T18:24:42;2.08;;;0.30;;
43803;SDS011;29430;52.924;-2.388;2023-03-01T18:29:35;1.92;;;0.40;;
43803;SDS011;29430;52.924;-2.388;2023-03-01T18:34:27;2.28;;;0.50;;
43803;SDS011;29430;52.924;-2.388;2023-03-01T18:39:19;2.22;;;0.60;;
43803;SDS011;29430;52.924;-2.388;2023-03-01T18:44:11;1.90;;;0.63;;
43803;SDS011;29430;52.924;-2.388;2023-03-01T18:49:03;2.88;;;0.90;;
43803;SDS011;29430;52.924;-2.388;2023-03-01T18:53:56;2.70;;;0.90;;
43803;SDS011;29430;52.924;-2.388;2023-03-01T18:58:51;2.00;;;0.70;;
43803;SDS011;29430;52.924;-2.388;2023-03-01T19:03:43;2.83;;;0.85;;
43803;SDS011;29430;52.924;-2.388;2023-03-01T19:08:36;2.55;;;0.80;;
43803;SDS011;29430;52.924;-2.388;2023-03-01T19:13:28;2.78;;;0.90;;
43803;SDS011;29430;52.924;-2.388;2023-03-01T19:18:20;2.78;;;0.65;;
43803;SDS011;29430;52.924;-2.388;2023-03-01T19:23:12;2.35;;;0.60;;
43803;SDS011;29430;52.924;-2.388;2023-03-01T19:28:04;5.07;;;0.70;;
43803;SDS011;29430;52.924;-2.388;2023-03-01T19:32:56;2.40;;;0.70;;
43803;SDS011;29430;52.924;-2.388;2023-03-01T19:37:48;3.67;;;0.80;;
43803;SDS011;29430;52.924;-2.388;2023-03-01T19:42:40;2.53;;;0.93;;
43803;SDS011;29430;52.924;-2.388;2023-03-01T19:47:31;2.50;;;0.70;;
43803;SDS011;29430;52.924;-2.388;2023-03-01T19:52:23;3.72;;;0.80;;
43803;SDS011;29430;52.924;-2.388;2023-03-01T19:57:15;3.78;;;0.80;;
43803;SDS011;29430;52.924;-2.388;2023-03-01T20:02:07;4.80;;;0.88;;
43803;SDS011;29430;52.924;-2.388;2023-03-01T20:06:59;3.22;;;1.27;;
43803;SDS011;29430;52.924;-2.388;2023-03-01T20:11:51;4.43;;;1.13;;
43803;SDS011;29430;52.924;-2.388;2023-03-01T20:16:43;3.90;;;1.63;;
43803;SDS011;29430;52.924;-2.388;2023-03-01T20:21:35;8.05;;;1.92;;
43803;SDS011;29430;52.924;-2.388;2023-03-01T20:26:26;5.45;;;1.67;;
43803;SDS011;29430;52.924;-2.388;2023-03-01T20:31:20;4.25;;;1.45;;
43803;SDS011;29430;52.924;-2.388;2023-03-01T20:36:13;5.07;;;1.48;;
43803;SDS011;29430;52.924;-2.388;2023-03-01T20:41:06;4.45;;;1.20;;
43803;SDS011;29430;52.924;-2.388;2023-03-01T20:46:07;3.13;;;0.90;;
43803;SDS011;29430;52.924;-2.388;2023-03-01T20:51:05;2.75;;;0.90;;
43803;SDS011;29430;52.924;-2.388;2023-03-01T20:56:01;3.28;;;0.90;;
43803;SDS011;29430;52.924;-2.388;2023-03-01T21:00:57;3.30;;;0.90;;
43803;SDS011;29430;52.924;-2.388;2023-03-01T21:05:49;2.65;;;0.80;;
43803;SDS011;29430;52.924;-2.388;2023-03-01T21:10:41;7.90;;;0.93;;
43803;SDS011;29430;52.924;-2.388;2023-03-01T21:15:33;2.25;;;0.75;;
43803;SDS011;29430;52.924;-2.388;2023-03-01T21:20:24;3.97;;;1.13;;
43803;SDS011;29430;52.924;-2.388;2023-03-01T21:25:16;3.83;;;0.70;;
43803;SDS011;29430;52.924;-2.388;2023-03-01T21:30:08;3.53;;;0.80;;
43803;SDS011;29430;52.924;-2.388;2023-03-01T21:35:01;3.30;;;0.90;;
43803;SDS011;29430;52.924;-2.388;2023-03-01T21:39:52;3.58;;;0.80;;
43803;SDS011;29430;52.924;-2.388;2023-03-01T21:44:44;3.33;;;0.70;;
43803;SDS011;29430;52.924;-2.388;2023-03-01T21:49:36;3.70;;;0.90;;
43803;SDS011;29430;52.924;-2.388;2023-03-01T21:54:28;2.85;;;1.00;;
43803;SDS011;29430;52.924;-2.388;2023-03-01T21:59:20;2.75;;;0.80;;
43803;SDS011;29430;52.924;-2.388;2023-03-01T22:04:14;7.28;;;0.90;;
43803;SDS011;29430;52.924;-2.388;2023-03-01T22:14:06;4.95;;;0.90;;
43803;SDS011;29430;52.924;-2.388;2023-03-01T22:18:59;3.80;;;0.70;;
43803;SDS011;29430;52.924;-2.388;2023-03-01T22:23:51;5.20;;;0.82;;
43803;SDS011;29430;52.924;-2.388;2023-03-01T22:28:44;6.22;;;0.60;;
43803;SDS011;29430;52.924;-2.388;2023-03-01T22:33:36;8.05;;;0.50;;
43803;SDS011;29430;52.924;-2.388;2023-03-01T22:38:27;3.30;;;0.70;;
43803;SDS011;29430;52.924;-2.388;2023-03-01T22:43:19;6.85;;;1.20;;
43803;SDS011;29430;52.924;-2.388;2023-03-01T22:48:11;4.15;;;0.50;;
43803;SDS011;29430;52.924;-2.388;2023-03-01T22:53:02;4.32;;;0.50;;
43803;SDS011;29430;52.924;-2.388;2023-03-01T22:57:54;4.53;;;0.43;;
43803;SDS011;29430;52.924;-2.388;2023-03-01T23:02:46;6.55;;;1.20;;
43803;SDS011;29430;52.924;-2.388;2023-03-01T23:07:38;6.20;;;0.57;;
43803;SDS011;29430;52.924;-2.388;2023-03-01T23:12:30;3.90;;;0.50;;
43803;SDS011;29430;52.924;-2.388;2023-03-01T23:17:22;4.20;;;0.40;;
43803;SDS011;29430;52.924;-2.388;2023-03-01T23:22:14;3.22;;;0.35;;
43803;SDS011;29430;52.924;-2.388;2023-03-01T23:27:06;4.13;;;0.45;;
43803;SDS011;29430;52.924;-2.388;2023-03-01T23:31:57;5.55;;;1.48;;
43803;SDS011;29430;52.924;-2.388;2023-03-01T23:36:53;3.33;;;0.50;;
43803;SDS011;29430;52.924;-2.388;2023-03-01T23:41:45;3.08;;;0.40;;
43803;SDS011;29430;52.924;-2.388;2023-03-01T23:46:37;3.70;;;0.50;;
43803;SDS011;29430;52.924;-2.388;2023-03-01T23:51:29;3.72;;;0.40;;
43803;SDS011;29430;52.924;-2.388;2023-03-01T23:56:22;5.35;;;0.40;;
